Time;durP1;ratioP1;P1;durP2;ratioP2;P2;SDS_P1;SDS_P2;PMS_P1;PMS_P2;Temp;Humidity;BMP_temperature;BMP_pressure;BME280_temperature;BME280_humidity;BME280_pressure;Samples;Min_cycle;Max_cycle;Signal;HPM_P1;HPM_P2
2023/09/21 00:00:21;;;;;;;1999.90;999.90;;;17.70;99.90;;;;;;4975598;28;20046;-67
2023/09/21 00:02:49;;;;;;;1999.90;999.90;;;17.60;99.90;;;;;;4997973;28;20494;-68
2023/09/21 00:05:19;;;;;;;1999.90;999.90;;;17.70;99.90;;;;;;4976486;28;20120;-68
2023/09/21 00:07:45;;;;;;;1999.90;999.90;;;17.70;99.90;;;;;;4978080;28;20143;-67
2023/09/21 00:10:12;;;;;;;1999.90;999.90;;;17.70;99.90;;;;;;4970185;28;20042;-67
2023/09/21 00:12:39;;;;;;;1999.90;999.90;;;17.80;99.90;;;;;;4981506;28;20402;-67
2023/09/21 00:15:06;;;;;;;1999.90;999.90;;;17.80;99.90;;;;;;4972760;28;20046;-67
2023/09/21 00:17:36;;;;;;;1999.90;999.90;;;17.80;99.90;;;;;;4974663;28;20506;-68
2023/09/21 00:20:10;;;;;;;1999.90;999.90;;;17.80;99.90;;;;;;4975862;28;20051;-68
2023/09/21 00:22:37;;;;;;;1999.90;999.90;;;17.90;99.90;;;;;;4978646;28;20038;-68
2023/09/21 00:25:04;;;;;;;1999.90;999.90;;;17.90;99.90;;;;;;4980192;28;20403;-67
2023/09/21 00:27:30;;;;;;;1999.90;999.90;;;17.90;99.90;;;;;;4977655;28;20061;-67
2023/09/21 00:29:56;;;;;;;1999.90;999.90;;;18.00;99.90;;;;;;4980985;28;20050;-68
2023/09/21 00:32:21;;;;;;;1999.90;999.90;;;18.00;99.90;;;;;;4980428;28;20122;-67
2023/09/21 00:34:50;;;;;;;1999.90;999.90;;;18.10;99.90;;;;;;4979092;28;20043;-67
2023/09/21 00:37:17;;;;;;;1999.90;999.90;;;18.10;99.90;;;;;;4972880;28;20050;-68
2023/09/21 00:39:43;;;;;;;1999.90;999.90;;;18.10;99.90;;;;;;4981350;28;20058;-67
2023/09/21 00:42:08;;;;;;;1999.90;999.90;;;18.10;99.90;;;;;;4980261;28;20391;-67
2023/09/21 00:44:34;;;;;;;1999.90;999.90;;;18.10;99.90;;;;;;4981548;28;20165;-67
2023/09/21 00:47:00;;;;;;;1999.90;999.90;;;18.10;99.90;;;;;;4975536;28;20053;-67
2023/09/21 00:49:29;;;;;;;1999.90;999.90;;;18.10;99.90;;;;;;4984407;28;20548;-68
2023/09/21 00:51:55;;;;;;;1999.90;999.90;;;18.10;99.90;;;;;;4980529;28;20061;-67
2023/09/21 00:54:22;;;;;;;1999.90;999.90;;;18.10;99.90;;;;;;4979524;28;20132;-68
2023/09/21 00:56:51;;;;;;;1999.90;999.90;;;18.10;99.90;;;;;;4976608;28;20408;-67
2023/09/21 00:59:19;;;;;;;1999.90;999.90;;;18.20;99.90;;;;;;4967974;28;20123;-66
2023/09/21 01:01:46;;;;;;;1999.90;999.90;;;18.20;99.90;;;;;;4976254;28;20082;-68
2023/09/21 01:04:13;;;;;;;1999.90;999.90;;;18.20;99.90;;;;;;4970810;28;20122;-68
2023/09/21 01:06:39;;;;;;;1999.90;999.90;;;18.20;99.90;;;;;;4968655;28;20053;-67
2023/09/21 01:09:06;;;;;;;1999.90;999.90;;;18.20;99.90;;;;;;4972762;28;20117;-67
2023/09/21 01:11:37;;;;;;;1999.90;999.90;;;18.20;99.90;;;;;;4977531;28;20061;-67
2023/09/21 01:14:03;;;;;;;1999.90;999.90;;;18.20;99.90;;;;;;4956224;28;20038;-67
2023/09/21 01:16:30;;;;;;;1999.90;999.90;;;18.20;99.90;;;;;;4975383;28;20047;-67
2023/09/21 01:18:55;;;;;;;1999.90;999.90;;;18.10;99.90;;;;;;4977744;28;20042;-67
2023/09/21 01:21:30;;;;;;;1999.90;999.90;;;18.20;99.90;;;;;;5003348;28;20046;-67
2023/09/21 01:23:57;;;;;;;1999.90;999.90;;;18.30;99.90;;;;;;4986058;28;20046;-67
2023/09/21 01:26:23;;;;;;;1999.90;999.90;;;18.30;99.90;;;;;;4985780;28;20260;-67
2023/09/21 01:28:49;;;;;;;1999.90;999.90;;;18.40;99.90;;;;;;4979841;28;20104;-67
2023/09/21 01:31:15;;;;;;;1999.90;999.90;;;18.40;99.90;;;;;;4981938;28;20399;-67
2023/09/21 01:33:44;;;;;;;1999.90;999.90;;;18.40;99.90;;;;;;4980410;28;20057;-67
2023/09/21 01:36:12;;;;;;;189.32;180.13;;;18.40;99.90;;;;;;4987053;28;20063;-68
2023/09/21 01:38:38;;;;;;;138.18;132.13;;;18.40;99.90;;;;;;4985214;28;20034;-67
2023/09/21 01:41:06;;;;;;;142.27;135.88;;;18.50;99.90;;;;;;4983810;28;20518;-68
2023/09/21 01:43:33;;;;;;;131.95;126.13;;;18.50;99.90;;;;;;4986565;28;20139;-68
2023/09/21 01:45:58;;;;;;;171.65;164.00;;;18.40;99.90;;;;;;4975954;28;20402;-67
2023/09/21 01:48:26;;;;;;;168.52;161.20;;;18.30;99.90;;;;;;4984834;28;20038;-67
2023/09/21 01:50:57;;;;;;;137.88;131.85;;;18.30;99.90;;;;;;4977727;28;20043;-67
2023/09/21 01:53:23;;;;;;;171.10;163.38;;;18.30;99.90;;;;;;4976657;28;20054;-68
2023/09/21 01:55:50;;;;;;;177.15;169.48;;;18.40;99.90;;;;;;4979338;28;20081;-68
2023/09/21 01:58:22;;;;;;;141.90;135.60;;;18.40;99.90;;;;;;4980570;28;20046;-67
2023/09/21 02:00:47;;;;;;;172.52;164.68;;;18.40;99.90;;;;;;4983343;28;20038;-68
2023/09/21 02:03:17;;;;;;;160.77;153.73;;;18.30;99.90;;;;;;4980561;28;20077;-67
2023/09/21 02:05:43;;;;;;;166.38;159.07;;;18.40;99.90;;;;;;4982271;28;20119;-67
2023/09/21 02:08:11;;;;;;;175.73;167.93;;;18.40;99.90;;;;;;4978171;28;20038;-68
2023/09/21 02:10:38;;;;;;;169.57;162.10;;;18.30;99.90;;;;;;4973746;28;20038;-67
2023/09/21 02:13:07;;;;;;;146.50;140.00;;;18.30;99.90;;;;;;4981339;28;20042;-68
2023/09/21 02:15:35;;;;;;;183.85;175.60;;;18.30;99.90;;;;;;4981248;28;20074;-68
2023/09/21 02:18:02;;;;;;;183.20;174.80;;;18.30;99.90;;;;;;4978255;28;20034;-68
2023/09/21 02:20:29;;;;;;;130.30;124.50;;;18.30;99.90;;;;;;4983828;28;20057;-68
2023/09/21 02:23:00;;;;;;;162.93;155.85;;;18.30;99.90;;;;;;4979275;28;20049;-67
2023/09/21 02:25:30;;;;;;;150.75;144.13;;;18.30;99.90;;;;;;4981927;28;20046;-67
2023/09/21 02:27:56;;;;;;;191.73;183.50;;;18.30;99.90;;;;;;4988212;28;20114;-67
2023/09/21 02:30:23;;;;;;;155.02;148.38;;;18.30;99.90;;;;;;4964482;28;20043;-68
2023/09/21 02:32:51;;;;;;;144.55;138.18;;;18.40;99.90;;;;;;4980115;28;20543;-67
2023/09/21 02:35:27;;;;;;;154.95;148.27;;;18.40;99.90;;;;;;4986663;28;20081;-68
2023/09/21 02:37:55;;;;;;;190.90;182.57;;;18.40;99.90;;;;;;4987516;28;20046;-68
2023/09/21 02:40:22;;;;;;;168.60;161.25;;;18.40;99.90;;;;;;4978076;28;20043;-68
2023/09/21 02:42:53;;;;;;;155.95;149.25;;;18.40;99.90;;;;;;4980529;28;20046;-67
2023/09/21 02:45:29;;;;;;;156.43;149.55;;;18.40;99.90;;;;;;4978349;28;20035;-68
2023/09/21 02:48:00;;;;;;;162.98;155.40;;;18.40;99.90;;;;;;4986398;28;20038;-68
2023/09/21 02:50:27;;;;;;;150.57;143.93;;;18.50;99.90;;;;;;4986401;28;20477;-68
2023/09/21 02:53:06;;;;;;;175.55;167.48;;;18.50;99.90;;;;;;4979793;28;20091;-67
2023/09/21 02:55:33;;;;;;;144.35;138.02;;;18.50;99.90;;;;;;4979095;28;20043;-67
2023/09/21 02:58:10;;;;;;;183.43;175.43;;;18.50;99.90;;;;;;5005016;28;20414;-68
2023/09/21 03:00:43;;;;;;;189.68;181.32;;;18.50;99.90;;;;;;5014583;28;20049;-67
2023/09/21 03:03:13;;;;;;;168.60;160.90;;;18.50;99.90;;;;;;4970015;28;20046;-69
2023/09/21 03:05:40;;;;;;;165.30;158.07;;;18.40;99.90;;;;;;4979703;28;20082;-67
2023/09/21 03:08:14;;;;;;;169.10;161.77;;;18.40;99.90;;;;;;4986960;28;20541;-67
2023/09/21 03:10:44;;;;;;;176.38;168.57;;;18.40;99.90;;;;;;4984423;28;20038;-67
2023/09/21 03:13:20;;;;;;;153.93;147.25;;;18.50;99.90;;;;;;4974678;28;20443;-68
2023/09/21 03:16:00;;;;;;;154.07;147.38;;;18.50;99.90;;;;;;4977188;28;20055;-68
2023/09/21 03:18:27;;;;;;;173.20;165.43;;;18.50;99.90;;;;;;4974491;28;20043;-67
2023/09/21 03:20:53;;;;;;;158.35;151.65;;;18.50;99.90;;;;;;4974596;28;20046;-68
2023/09/21 03:23:20;;;;;;;146.55;140.27;;;18.50;99.90;;;;;;4982666;28;20055;-68
2023/09/21 03:25:47;;;;;;;170.27;163.02;;;18.50;99.90;;;;;;4983116;28;20052;-67
2023/09/21 03:28:15;;;;;;;162.18;155.15;;;18.50;99.90;;;;;;4984328;28;20043;-67
2023/09/21 03:30:44;;;;;;;147.15;140.55;;;18.50;99.90;;;;;;4982418;28;20053;-67
2023/09/21 03:33:10;;;;;;;179.32;171.27;;;18.50;99.90;;;;;;4956461;28;20407;-68
2023/09/21 03:35:37;;;;;;;176.73;169.15;;;18.50;99.90;;;;;;4987479;28;20051;-68
2023/09/21 03:38:06;;;;;;;154.80;148.05;;;18.50;99.90;;;;;;4978746;28;20034;-68
2023/09/21 03:40:33;;;;;;;146.38;139.82;;;18.50;99.90;;;;;;4991218;28;20105;-67
2023/09/21 03:42:59;;;;;;;165.88;158.85;;;18.50;99.90;;;;;;4974726;28;20050;-67
2023/09/21 03:45:25;;;;;;;153.25;146.68;;;18.50;99.90;;;;;;4985042;28;20117;-68
2023/09/21 03:47:54;;;;;;;173.27;165.68;;;18.60;99.90;;;;;;4986445;28;20466;-68
2023/09/21 03:50:25;;;;;;;185.23;177.48;;;18.60;99.90;;;;;;5005721;28;20042;-67
2023/09/21 03:52:53;;;;;;;178.43;170.40;;;18.70;99.90;;;;;;4978027;28;20154;-68
2023/09/21 03:55:19;;;;;;;155.88;149.18;;;18.70;99.90;;;;;;4977968;28;20047;-68
2023/09/21 03:57:46;;;;;;;182.73;175.10;;;18.70;99.90;;;;;;4984438;28;20118;-67
2023/09/21 04:02:53;;;;;;;182.75;174.90;;;18.60;99.90;;;;;;4977285;28;20093;-68
2023/09/21 04:05:19;;;;;;;172.25;164.70;;;18.60;99.90;;;;;;4983637;28;20057;-68
2023/09/21 04:07:49;;;;;;;181.73;174.15;;;18.50;99.90;;;;;;4984417;28;20043;-68
2023/09/21 04:10:15;;;;;;;176.35;168.52;;;18.50;99.90;;;;;;4983951;28;20048;-68
2023/09/21 04:12:42;;;;;;;174.45;166.93;;;18.50;99.90;;;;;;4981364;28;20038;-67
2023/09/21 04:15:08;;;;;;;180.75;173.07;;;18.50;99.90;;;;;;4986078;28;20398;-68
2023/09/21 04:17:35;;;;;;;187.45;179.23;;;18.40;99.90;;;;;;4977048;28;20378;-67
2023/09/21 04:20:04;;;;;;;185.85;177.98;;;18.40;99.90;;;;;;4974938;28;20078;-68
2023/09/21 04:22:31;;;;;;;195.93;186.88;;;18.40;99.90;;;;;;4976480;28;20551;-67
2023/09/21 04:25:01;;;;;;;217.30;207.38;;;18.40;99.90;;;;;;5003498;28;20404;-68
2023/09/21 04:27:27;;;;;;;168.35;161.20;;;18.40;99.90;;;;;;4993569;28;20406;-68
2023/09/21 04:29:52;;;;;;;170.55;163.10;;;18.30;99.90;;;;;;5008725;28;20043;-68
2023/09/21 04:32:18;;;;;;;175.55;167.93;;;18.30;99.90;;;;;;4969330;28;20047;-67
2023/09/21 04:34:44;;;;;;;188.07;180.07;;;18.20;99.90;;;;;;4981417;28;20042;-67
2023/09/21 04:37:10;;;;;;;174.43;166.73;;;18.20;99.90;;;;;;4978202;28;20505;-68
2023/09/21 04:39:35;;;;;;;164.45;157.52;;;18.10;99.90;;;;;;4975485;28;20068;-68
2023/09/21 04:42:01;;;;;;;1545.65;793.67;;;18.10;99.90;;;;;;4981947;28;20066;-67
2023/09/21 04:44:30;;;;;;;154.27;147.75;;;18.00;99.90;;;;;;5011671;28;20086;-68
2023/09/21 04:46:56;;;;;;;1999.90;999.90;;;18.00;99.90;;;;;;5002554;28;20042;-68
2023/09/21 04:49:21;;;;;;;1999.90;999.90;;;18.00;99.90;;;;;;4981675;28;20042;-67
2023/09/21 04:51:47;;;;;;;1999.90;999.90;;;18.00;99.90;;;;;;5001328;28;20128;-68
2023/09/21 04:54:13;;;;;;;1999.90;999.90;;;18.00;99.90;;;;;;4963740;28;20421;-68
2023/09/21 04:56:39;;;;;;;1999.90;999.90;;;18.00;99.90;;;;;;4969386;28;20046;-68
2023/09/21 04:59:04;;;;;;;1999.90;999.90;;;18.00;99.90;;;;;;4973094;28;20495;-68
2023/09/21 05:01:31;;;;;;;1999.90;999.90;;;18.00;99.90;;;;;;4978059;28;20041;-68
2023/09/21 05:03:56;;;;;;;1999.90;999.90;;;17.90;99.90;;;;;;4980783;28;20110;-68
2023/09/21 05:06:23;;;;;;;1999.90;999.90;;;17.90;99.90;;;;;;4976981;28;20319;-67
2023/09/21 05:08:49;;;;;;;1999.90;999.90;;;17.80;99.90;;;;;;4971633;28;20058;-68
2023/09/21 05:11:15;;;;;;;1999.90;999.90;;;17.80;99.90;;;;;;4970571;28;20479;-68
2023/09/21 05:13:40;;;;;;;1999.90;999.90;;;17.80;99.90;;;;;;4979762;28;20141;-68
2023/09/21 05:16:06;;;;;;;1999.90;999.90;;;17.80;99.90;;;;;;4982042;28;20113;-68
2023/09/21 05:18:32;;;;;;;1999.90;999.90;;;17.80;99.90;;;;;;4979929;28;20042;-67
2023/09/21 05:20:58;;;;;;;1999.90;999.90;;;17.90;99.90;;;;;;4997129;28;20088;-68
2023/09/21 05:23:23;;;;;;;1999.90;999.90;;;17.80;99.90;;;;;;4989941;28;20093;-68
2023/09/21 05:25:49;;;;;;;1999.90;999.90;;;17.90;99.90;;;;;;4976733;28;20078;-68
2023/09/21 05:28:16;;;;;;;1999.90;999.90;;;17.90;99.90;;;;;;4991206;28;20620;-68
2023/09/21 05:30:42;;;;;;;1999.90;999.90;;;17.80;99.90;;;;;;4982850;28;20046;-68
2023/09/21 05:33:07;;;;;;;1999.90;999.90;;;17.80;99.90;;;;;;4979079;28;20044;-67
2023/09/21 05:35:34;;;;;;;1999.90;999.90;;;17.90;99.90;;;;;;5001398;28;20035;-68
2023/09/21 05:38:00;;;;;;;1999.90;999.90;;;17.90;99.90;;;;;;5001290;28;20039;-68
2023/09/21 05:40:26;;;;;;;1999.90;999.90;;;17.90;99.90;;;;;;4972726;28;20065;-68
2023/09/21 05:42:51;;;;;;;1999.90;999.90;;;17.80;99.90;;;;;;4967445;28;20054;-68
2023/09/21 05:45:17;;;;;;;1999.90;999.90;;;17.80;99.90;;;;;;4970525;28;20093;-67
2023/09/21 05:47:42;;;;;;;1999.90;999.90;;;17.80;99.90;;;;;;4981838;28;20049;-68
2023/09/21 05:50:08;;;;;;;1999.90;999.90;;;17.80;99.90;;;;;;4976931;28;20046;-68
2023/09/21 05:52:35;;;;;;;1999.90;999.90;;;17.80;99.90;;;;;;4967322;28;20043;-67
2023/09/21 05:55:02;;;;;;;1999.90;999.90;;;17.80;99.90;;;;;;4962511;28;20498;-67
2023/09/21 05:57:27;;;;;;;1999.90;999.90;;;17.80;99.90;;;;;;4978668;28;20604;-67
2023/09/21 05:59:54;;;;;;;1999.90;999.90;;;17.80;99.90;;;;;;4977248;28;20119;-68
2023/09/21 06:02:20;;;;;;;1999.90;999.90;;;17.80;99.90;;;;;;4986291;28;20043;-68
2023/09/21 06:04:46;;;;;;;1999.90;999.90;;;17.80;99.90;;;;;;4980739;28;20509;-67
2023/09/21 06:07:12;;;;;;;1999.90;999.90;;;17.80;99.90;;;;;;4973252;28;20106;-67
2023/09/21 06:09:39;;;;;;;1999.90;999.90;;;17.80;99.90;;;;;;4978421;28;20054;-67
2023/09/21 06:12:10;;;;;;;1999.90;999.90;;;17.80;99.90;;;;;;4982274;28;20031;-67
2023/09/21 06:14:39;;;;;;;1999.90;999.90;;;17.80;99.90;;;;;;4984028;28;20383;-68
2023/09/21 06:17:06;;;;;;;1999.90;999.90;;;17.70;99.90;;;;;;5029916;28;20121;-68
2023/09/21 06:19:33;;;;;;;1999.90;999.90;;;17.70;99.90;;;;;;4980602;28;20054;-67
2023/09/21 06:21:58;;;;;;;1999.90;999.90;;;17.70;99.90;;;;;;4980947;28;20054;-68
2023/09/21 06:24:25;;;;;;;1999.90;999.90;;;17.70;99.90;;;;;;4982910;28;20046;-67
2023/09/21 06:26:53;;;;;;;1999.90;999.90;;;17.70;99.90;;;;;;4983072;28;20080;-67
2023/09/21 06:29:22;;;;;;;1999.90;999.90;;;17.60;99.90;;;;;;4981768;28;20057;-68
2023/09/21 06:31:48;;;;;;;1999.90;999.90;;;17.60;99.90;;;;;;4983778;28;20084;-67
2023/09/21 06:34:18;;;;;;;1999.90;999.90;;;17.50;99.90;;;;;;4985203;28;20050;-67
2023/09/21 06:36:44;;;;;;;1999.90;999.90;;;17.50;99.90;;;;;;4971390;28;20070;-68
2023/09/21 06:39:11;;;;;;;1999.90;999.90;;;17.50;99.90;;;;;;5003184;28;20502;-67
2023/09/21 06:41:37;;;;;;;1999.90;999.90;;;17.50;99.90;;;;;;4981813;28;20657;-67
2023/09/21 06:44:03;;;;;;;1999.90;999.90;;;17.50;99.90;;;;;;4986836;28;20129;-67
2023/09/21 06:46:29;;;;;;;1999.90;999.90;;;17.50;99.90;;;;;;4982901;28;20046;-68
2023/09/21 06:48:55;;;;;;;1999.90;999.90;;;17.50;99.90;;;;;;4966823;28;20044;-67
2023/09/21 06:51:21;;;;;;;1999.90;999.90;;;17.60;99.90;;;;;;5003081;28;20580;-67
2023/09/21 06:53:48;;;;;;;1999.90;999.90;;;17.50;99.90;;;;;;4982887;28;20054;-68
2023/09/21 06:56:14;;;;;;;1999.90;999.90;;;17.50;99.90;;;;;;4979949;28;20054;-67
2023/09/21 06:58:39;;;;;;;1999.90;999.90;;;17.50;99.90;;;;;;4979618;28;20493;-67
2023/09/21 07:01:05;;;;;;;1999.90;999.90;;;17.40;99.90;;;;;;4984391;28;20128;-67
2023/09/21 07:03:32;;;;;;;1999.90;999.90;;;17.40;99.90;;;;;;4985739;28;20165;-67
2023/09/21 07:05:58;;;;;;;1999.90;999.90;;;17.30;99.90;;;;;;4983651;28;20065;-67
2023/09/21 07:08:23;;;;;;;1999.90;999.90;;;17.30;99.90;;;;;;4985976;28;20482;-67
2023/09/21 07:10:49;;;;;;;1999.90;999.90;;;17.20;99.90;;;;;;4988274;28;20038;-67
2023/09/21 07:13:18;;;;;;;1999.90;999.90;;;17.20;99.90;;;;;;4974789;28;20536;-67
2023/09/21 07:15:44;;;;;;;1999.90;999.90;;;17.20;99.90;;;;;;4977757;28;20088;-67
2023/09/21 07:18:11;;;;;;;1999.90;999.90;;;17.20;99.90;;;;;;4988116;28;20560;-67
2023/09/21 07:20:37;;;;;;;1999.90;999.90;;;17.20;99.90;;;;;;4981230;28;20050;-67
2023/09/21 07:23:03;;;;;;;1999.90;999.90;;;17.20;99.90;;;;;;5006136;28;20089;-67
2023/09/21 07:25:29;;;;;;;1999.90;999.90;;;17.20;99.90;;;;;;4982273;28;20450;-67
2023/09/21 07:27:58;;;;;;;1999.90;999.90;;;17.20;99.90;;;;;;4980983;28;20084;-67
2023/09/21 07:30:25;;;;;;;1999.90;999.90;;;17.20;99.90;;;;;;4988156;28;20034;-67
2023/09/21 07:32:51;;;;;;;1999.90;999.90;;;17.10;99.90;;;;;;4976089;28;20049;-67
2023/09/21 07:35:21;;;;;;;1999.90;999.90;;;17.10;99.90;;;;;;4976798;28;20042;-67
2023/09/21 07:37:49;;;;;;;1999.90;999.90;;;17.20;99.90;;;;;;4976414;28;20047;-67
2023/09/21 07:40:20;;;;;;;1999.90;999.90;;;17.10;99.90;;;;;;4982628;28;20100;-67
2023/09/21 07:42:48;;;;;;;1999.90;999.90;;;17.10;99.90;;;;;;4982960;28;20043;-67
2023/09/21 07:45:15;;;;;;;1999.90;999.90;;;17.10;99.90;;;;;;4983065;28;20053;-67
2023/09/21 07:47:41;;;;;;;1999.90;999.90;;;17.00;99.90;;;;;;4980732;28;20402;-67
2023/09/21 07:50:07;;;;;;;1999.90;999.90;;;17.10;99.90;;;;;;4982580;28;20069;-67
2023/09/21 07:52:34;;;;;;;1999.90;999.90;;;17.00;99.90;;;;;;4975275;28;20047;-67
2023/09/21 07:55:04;;;;;;;1999.90;999.90;;;17.00;99.90;;;;;;5029040;28;20038;-67
2023/09/21 07:57:33;;;;;;;1999.90;999.90;;;17.00;99.90;;;;;;4991128;28;20578;-67
2023/09/21 08:00:00;;;;;;;1999.90;999.90;;;17.00;99.90;;;;;;4979940;28;20039;-67
2023/09/21 08:02:27;;;;;;;1999.90;999.90;;;17.00;99.90;;;;;;4984890;28;20046;-67
2023/09/21 08:04:54;;;;;;;1999.90;999.90;;;17.00;99.90;;;;;;4981753;28;20042;-67
2023/09/21 08:07:23;;;;;;;1999.90;999.90;;;17.00;99.90;;;;;;4974529;28;20406;-67
2023/09/21 08:09:49;;;;;;;1999.90;999.90;;;17.00;99.90;;;;;;4979684;28;20046;-67
2023/09/21 08:12:15;;;;;;;1999.90;999.90;;;17.00;99.90;;;;;;4975822;28;20042;-67
2023/09/21 08:14:41;;;;;;;1999.90;999.90;;;17.00;99.90;;;;;;4976864;28;20123;-67
2023/09/21 08:17:07;;;;;;;1999.90;999.90;;;17.00;99.90;;;;;;5004673;28;20050;-67
2023/09/21 08:19:35;;;;;;;1999.90;999.90;;;17.00;99.90;;;;;;4976037;28;20054;-67
2023/09/21 08:22:01;;;;;;;1999.90;999.90;;;16.90;99.90;;;;;;4973155;28;20604;-67
2023/09/21 08:24:27;;;;;;;1999.90;999.90;;;16.90;99.90;;;;;;4971648;28;20039;-67
2023/09/21 08:26:52;;;;;;;1999.90;999.90;;;16.90;99.90;;;;;;4970822;28;20092;-67
2023/09/21 08:29:21;;;;;;;1999.90;999.90;;;16.90;99.90;;;;;;4983192;28;20046;-67
2023/09/21 08:31:47;;;;;;;1999.90;999.90;;;16.90;99.90;;;;;;4978531;28;20042;-67
2023/09/21 08:34:13;;;;;;;1999.90;999.90;;;16.90;99.90;;;;;;4972459;28;20050;-68
2023/09/21 08:36:38;;;;;;;1999.90;999.90;;;16.90;99.90;;;;;;4982182;28;20646;-67
2023/09/21 08:39:05;;;;;;;1999.90;999.90;;;16.80;99.90;;;;;;4990251;28;20038;-67
2023/09/21 08:41:32;;;;;;;1999.90;999.90;;;16.80;99.90;;;;;;4976456;28;20147;-67
2023/09/21 08:43:59;;;;;;;1999.90;999.90;;;16.80;99.90;;;;;;4981101;28;20050;-67
2023/09/21 08:46:27;;;;;;;1999.90;999.90;;;16.80;99.90;;;;;;4984617;28;20046;-67
2023/09/21 08:48:58;;;;;;;1999.90;999.90;;;16.80;99.90;;;;;;4973184;28;20091;-67
2023/09/21 08:51:25;;;;;;;1999.90;999.90;;;16.70;99.90;;;;;;4977194;28;20035;-67
2023/09/21 08:53:52;;;;;;;1999.90;999.90;;;16.60;99.90;;;;;;4980917;28;20042;-67
2023/09/21 08:56:20;;;;;;;1999.90;999.90;;;16.40;99.90;;;;;;4978239;28;20042;-67
2023/09/21 08:58:50;;;;;;;1999.90;999.90;;;16.30;99.90;;;;;;4979922;28;20054;-66
2023/09/21 09:01:17;;;;;;;1999.90;999.90;;;16.20;99.90;;;;;;4980098;28;20046;-67
2023/09/21 09:03:43;;;;;;;1999.90;999.90;;;16.10;99.90;;;;;;4990073;28;20050;-67
2023/09/21 09:06:10;;;;;;;1999.90;999.90;;;16.00;99.90;;;;;;4981038;28;20058;-67
2023/09/21 09:08:35;;;;;;;1999.90;999.90;;;15.90;99.90;;;;;;4984978;28;20057;-67
2023/09/21 09:11:01;;;;;;;1999.90;999.90;;;15.80;99.90;;;;;;4985445;28;20509;-67
2023/09/21 09:13:33;;;;;;;1999.90;999.90;;;15.70;99.90;;;;;;4981730;28;20042;-67
2023/09/21 09:15:59;;;;;;;1999.90;999.90;;;15.70;99.90;;;;;;4982485;28;20081;-67
2023/09/21 09:18:27;;;;;;;1999.90;999.90;;;15.70;99.90;;;;;;4981782;28;20054;-67
2023/09/21 09:20:54;;;;;;;1999.90;999.90;;;15.70;99.90;;;;;;4984137;28;20532;-67
2023/09/21 09:23:21;;;;;;;1999.90;999.90;;;15.60;99.90;;;;;;4980310;28;20042;-67
2023/09/21 09:25:49;;;;;;;1999.90;999.90;;;15.70;99.90;;;;;;4970505;28;20115;-67
2023/09/21 09:28:18;;;;;;;1999.90;999.90;;;15.80;99.90;;;;;;4971028;28;20046;-67
2023/09/21 09:30:45;;;;;;;1999.90;999.90;;;15.70;99.90;;;;;;4975723;28;20129;-67
2023/09/21 09:33:12;;;;;;;1999.90;999.90;;;15.70;99.90;;;;;;4980976;28;20054;-67
2023/09/21 09:35:41;;;;;;;1999.90;999.90;;;15.60;99.90;;;;;;4977772;28;20581;-67
2023/09/21 09:38:09;;;;;;;1999.90;999.90;;;15.60;99.90;;;;;;4967613;28;20046;-67
2023/09/21 09:40:37;;;;;;;1999.90;999.90;;;15.60;99.90;;;;;;4975120;28;20046;-67
2023/09/21 09:43:06;;;;;;;1999.90;999.90;;;15.50;99.90;;;;;;4977250;28;20089;-67
2023/09/21 09:45:33;;;;;;;1999.90;999.90;;;15.50;99.90;;;;;;5002021;28;20043;-67
2023/09/21 09:48:03;;;;;;;1999.90;999.90;;;15.50;99.90;;;;;;4981301;28;20522;-67
2023/09/21 09:50:34;;;;;;;1999.90;999.90;;;15.50;99.90;;;;;;4965558;28;20050;-67
2023/09/21 09:53:05;;;;;;;1999.90;999.90;;;15.50;99.90;;;;;;4981065;28;20042;-68
2023/09/21 09:55:33;;;;;;;1999.90;999.90;;;15.60;99.90;;;;;;4966731;28;20053;-68
2023/09/21 09:58:08;;;;;;;1999.90;999.90;;;15.60;99.90;;;;;;4982506;28;20419;-68
2023/09/21 10:00:41;;;;;;;1999.90;999.90;;;15.60;99.90;;;;;;5009498;28;20042;-68
2023/09/21 10:03:10;;;;;;;1999.90;999.90;;;15.60;99.90;;;;;;4986515;28;20053;-68
2023/09/21 10:05:37;;;;;;;1999.90;999.90;;;15.60;99.90;;;;;;4990702;28;20579;-68
2023/09/21 10:08:03;;;;;;;1999.90;999.90;;;15.60;99.90;;;;;;4983838;28;20035;-68
2023/09/21 10:10:51;;;;;;;1999.90;999.90;;;15.60;99.90;;;;;;4977780;28;20121;-68
2023/09/21 10:13:18;;;;;;;1999.90;999.90;;;15.60;99.90;;;;;;4977839;28;20466;-68
2023/09/21 10:15:48;;;;;;;1999.90;999.90;;;15.60;99.90;;;;;;4981692;28;20058;-68
2023/09/21 10:18:38;;;;;;;1999.90;999.90;;;15.60;99.90;;;;;;4979686;28;20483;-68
2023/09/21 10:21:14;;;;;;;1999.90;999.90;;;15.60;99.90;;;;;;4973294;28;20126;-68
2023/09/21 10:24:01;;;;;;;1999.90;999.90;;;15.70;99.90;;;;;;4976487;28;20058;-68
2023/09/21 10:26:27;;;;;;;;;;;15.70;99.90;;;;;;4976402;28;20043;-68
2023/09/21 10:28:53;;;;;;;1999.90;999.90;;;15.80;99.90;;;;;;4980418;28;20334;-67
2023/09/21 10:31:22;;;;;;;1999.90;999.90;;;15.80;99.90;;;;;;4983635;28;20081;-68
2023/09/21 10:33:51;;;;;;;1999.90;999.90;;;16.00;99.90;;;;;;4982815;28;20054;-67
2023/09/21 10:36:30;;;;;;;1999.90;999.90;;;16.10;99.90;;;;;;4984486;28;20058;-68
2023/09/21 10:39:11;;;;;;;1999.90;999.90;;;16.10;99.90;;;;;;4981217;28;20045;-67
2023/09/21 10:41:43;;;;;;;1999.90;999.90;;;16.20;99.90;;;;;;4978197;28;20058;-67
2023/09/21 10:44:09;;;;;;;1999.90;999.90;;;16.30;99.90;;;;;;4993387;28;20182;-68
2023/09/21 10:46:37;;;;;;;1999.90;999.90;;;16.30;99.90;;;;;;4977477;28;20039;-67
2023/09/21 10:49:06;;;;;;;1999.90;999.90;;;16.30;99.90;;;;;;4981339;28;20402;-68
2023/09/21 10:51:43;;;;;;;1999.90;999.90;;;16.30;99.90;;;;;;4971516;28;20046;-67
2023/09/21 10:54:12;;;;;;;1999.90;999.90;;;16.20;99.90;;;;;;4983216;28;20051;-67
2023/09/21 10:56:38;;;;;;;1999.90;999.90;;;16.30;99.90;;;;;;4963006;28;20054;-68
2023/09/21 10:59:07;;;;;;;1999.90;999.90;;;16.30;99.90;;;;;;4982561;28;20038;-68
2023/09/21 11:01:32;;;;;;;1999.90;999.90;;;16.30;99.90;;;;;;4980527;28;20123;-68
2023/09/21 11:03:58;;;;;;;1999.90;999.90;;;16.40;99.90;;;;;;5011894;28;20078;-67
2023/09/21 11:06:26;;;;;;;1999.90;999.90;;;16.50;99.90;;;;;;4982373;28;20034;-67
2023/09/21 11:08:53;;;;;;;1999.90;999.90;;;16.60;99.90;;;;;;4985603;28;20039;-68
2023/09/21 11:11:19;;;;;;;1999.90;999.90;;;16.70;99.90;;;;;;4979420;28;20487;-68
2023/09/21 11:13:50;;;;;;;1999.90;999.90;;;16.80;99.90;;;;;;4986982;28;20050;-67
2023/09/21 11:16:16;;;;;;;1999.90;999.90;;;16.70;99.90;;;;;;4988139;28;20410;-67
2023/09/21 11:18:42;;;;;;;1999.90;999.90;;;16.70;99.90;;;;;;4978560;28;20405;-67
2023/09/21 11:21:11;;;;;;;1999.90;999.90;;;16.60;99.90;;;;;;5035721;28;20035;-67
2023/09/21 11:23:40;;;;;;;1999.90;999.90;;;16.50;99.90;;;;;;4998777;28;20061;-68
2023/09/21 11:26:10;;;;;;;1999.90;999.90;;;16.40;99.90;;;;;;4981767;28;20064;-68
2023/09/21 11:28:39;;;;;;;1999.90;999.90;;;16.40;99.90;;;;;;4983469;28;20503;-67
2023/09/21 11:31:05;;;;;;;1999.90;999.90;;;16.50;99.90;;;;;;4999460;28;20089;-67
2023/09/21 11:33:34;;;;;;;1999.90;999.90;;;16.50;99.90;;;;;;4981112;28;20054;-67
2023/09/21 11:35:59;;;;;;;1999.90;999.90;;;16.60;99.90;;;;;;4988621;28;20080;-67
2023/09/21 11:38:25;;;;;;;1999.90;999.90;;;16.60;99.90;;;;;;4972501;28;20043;-67
2023/09/21 11:40:52;;;;;;;1999.90;999.90;;;16.50;99.90;;;;;;4980659;28;20125;-67
2023/09/21 11:43:17;;;;;;;1999.90;999.90;;;16.40;99.90;;;;;;4968375;28;20046;-67
2023/09/21 11:45:50;;;;;;;1999.90;999.90;;;16.40;99.90;;;;;;4969854;28;20406;-67
2023/09/21 11:48:18;;;;;;;1999.90;999.90;;;16.50;99.90;;;;;;4986286;28;20083;-67
2023/09/21 11:50:45;;;;;;;1999.90;999.90;;;16.40;99.90;;;;;;4980489;28;20039;-67
2023/09/21 11:53:12;;;;;;;1999.90;999.90;;;16.30;99.90;;;;;;4971460;28;20034;-67
2023/09/21 11:55:37;;;;;;;1999.90;999.90;;;16.30;99.90;;;;;;4976004;28;20114;-68
2023/09/21 11:58:07;;;;;;;1999.90;999.90;;;16.30;99.90;;;;;;4983799;28;20125;-67
2023/09/21 12:00:43;;;;;;;1999.90;999.90;;;16.20;99.90;;;;;;4978461;28;20078;-67
2023/09/21 12:03:37;;;;;;;1999.90;999.90;;;16.10;99.90;;;;;;4955399;28;20068;-67
2023/09/21 12:06:04;;;;;;;1999.90;999.90;;;16.00;99.90;;;;;;4975381;28;20514;-67